Time;durP1;ratioP1;P1;durP2;ratioP2;P2;SDS_P1;SDS_P2;PMS_P1;PMS_P2;Temp;Humidity;BMP_temperature;BMP_pressure;BME280_temperature;BME280_humidity;BME280_pressure;Samples;Min_cycle;Max_cycle;Signal;HPM_P1;HPM_P2
2022/07/16 00:01:23;;;;;;;1.53;1.10;;;16.20;91.70;;;;;;5189421;28;20223;-44
2022/07/16 00:03:59;;;;;;;0.57;0.57;;;16.20;92.50;;;;;;5216082;28;20185;-46
2022/07/16 00:06:30;;;;;;;1.53;0.90;;;16.20;93.10;;;;;;5213071;28;20473;-44
2022/07/16 00:09:00;;;;;;;1.33;0.70;;;16.20;93.70;;;;;;5203165;28;20843;-45
2022/07/16 00:11:31;;;;;;;9.63;0.87;;;16.20;94.50;;;;;;5212154;28;20196;-43
2022/07/16 00:14:02;;;;;;;3.00;0.90;;;16.20;94.90;;;;;;5217589;28;20187;-44
2022/07/16 00:16:33;;;;;;;2.03;0.73;;;16.10;95.30;;;;;;5219449;28;20282;-44
2022/07/16 00:19:19;;;;;;;1.00;0.80;;;16.10;95.90;;;;;;5210676;28;20187;-49
2022/07/16 00:21:52;;;;;;;1.17;0.40;;;16.10;96.70;;;;;;5203658;28;20213;-47
2022/07/16 00:24:24;;;;;;;4.33;0.67;;;16.10;97.30;;;;;;5200593;28;20434;-47
2022/07/16 00:26:55;;;;;;;0.90;0.90;;;16.00;97.60;;;;;;5202204;28;20512;-48
2022/07/16 00:29:26;;;;;;;1.23;1.17;;;16.00;98.10;;;;;;5212441;28;20462;-48
2022/07/16 00:31:56;;;;;;;1.70;0.63;;;16.00;98.50;;;;;;5218040;28;20186;-48
2022/07/16 00:34:27;;;;;;;4.43;1.23;;;16.00;99.10;;;;;;5219189;28;20194;-48
2022/07/16 00:36:58;;;;;;;1.03;1.00;;;16.00;99.50;;;;;;5210293;28;20612;-50
2022/07/16 00:39:28;;;;;;;1.73;1.03;;;16.00;99.50;;;;;;5208082;28;20254;-47
2022/07/16 00:41:59;;;;;;;5.97;1.20;;;16.10;99.70;;;;;;5193817;28;20184;-47
2022/07/16 00:44:30;;;;;;;2.27;0.70;;;16.10;99.90;;;;;;5218250;28;20207;-47
2022/07/16 00:47:00;;;;;;;2.50;1.13;;;16.10;99.90;;;;;;5219006;28;20262;-48
2022/07/16 00:49:31;;;;;;;1.57;1.07;;;16.10;99.90;;;;;;5215364;28;20723;-48
2022/07/16 00:52:01;;;;;;;1.03;0.80;;;16.10;99.90;;;;;;5201943;28;20269;-48
2022/07/16 00:54:32;;;;;;;3.50;0.90;;;16.10;99.90;;;;;;5215020;28;20182;-48
2022/07/16 00:57:03;;;;;;;0.83;0.83;;;16.10;99.90;;;;;;5220388;28;20326;-48
2022/07/16 00:59:33;;;;;;;2.83;0.83;;;16.10;99.90;;;;;;5212392;28;20212;-49
2022/07/16 01:02:04;;;;;;;2.07;1.40;;;16.10;99.90;;;;;;5207572;28;20568;-46
2022/07/16 01:04:35;;;;;;;1.07;1.07;;;16.10;99.90;;;;;;5223612;28;20187;-46
2022/07/16 01:07:08;;;;;;;0.60;0.60;;;16.10;99.90;;;;;;5199862;28;20179;-47
2022/07/16 01:09:39;;;;;;;1.63;0.77;;;16.00;99.90;;;;;;5200985;28;20198;-47
2022/07/16 01:12:10;;;;;;;3.23;0.50;;;16.00;99.90;;;;;;5201757;28;21050;-47
2022/07/16 01:14:41;;;;;;;1.60;1.00;;;16.00;99.90;;;;;;5204200;28;20283;-46
2022/07/16 01:17:12;;;;;;;2.17;1.00;;;16.00;99.90;;;;;;5195150;28;20192;-47
2022/07/16 01:19:43;;;;;;;0.67;0.67;;;16.00;99.90;;;;;;5209383;28;20461;-46
2022/07/16 01:22:22;;;;;;;0.80;0.80;;;16.00;99.90;;;;;;5209711;28;20184;-45
2022/07/16 01:24:53;;;;;;;1.07;0.97;;;16.00;99.90;;;;;;5225911;28;20207;-48
2022/07/16 01:27:23;;;;;;;2.80;0.93;;;15.90;99.90;;;;;;5200771;28;20456;-46
2022/07/16 01:29:54;;;;;;;0.50;0.50;;;15.90;99.90;;;;;;5197095;28;20461;-48
2022/07/16 01:32:25;;;;;;;1.83;0.77;;;15.90;99.90;;;;;;5218511;28;20279;-45
2022/07/16 01:34:55;;;;;;;3.50;0.73;;;15.90;99.90;;;;;;5215059;28;20188;-47
2022/07/16 01:37:26;;;;;;;0.60;0.60;;;15.80;99.90;;;;;;5204098;28;20186;-48
2022/07/16 01:39:57;;;;;;;2.60;0.50;;;15.80;99.90;;;;;;5203543;28;20306;-48
2022/07/16 01:42:27;;;;;;;0.73;0.73;;;15.80;99.90;;;;;;5196504;28;20192;-48
2022/07/16 01:44:59;;;;;;;1.10;0.70;;;15.80;99.90;;;;;;5220105;28;20570;-47
2022/07/16 01:47:29;;;;;;;1.00;0.90;;;15.70;99.90;;;;;;5214671;28;20184;-47
2022/07/16 01:50:00;;;;;;;0.83;0.73;;;15.60;99.90;;;;;;5219140;28;20549;-45
2022/07/16 01:52:31;;;;;;;1.57;0.77;;;15.60;99.90;;;;;;5201705;28;20278;-47
2022/07/16 01:55:01;;;;;;;2.00;0.80;;;15.50;99.90;;;;;;5212553;28;20183;-48
2022/07/16 01:57:32;;;;;;;1.30;0.60;;;15.40;99.90;;;;;;5212842;28;20218;-45
2022/07/16 02:00:04;;;;;;;2.40;0.80;;;15.40;99.90;;;;;;5213061;28;20210;-47
2022/07/16 02:02:34;;;;;;;0.33;0.33;;;15.40;99.90;;;;;;5206879;28;20527;-47
2022/07/16 02:05:05;;;;;;;0.50;0.50;;;15.40;99.90;;;;;;5189958;28;20545;-45
2022/07/16 02:07:36;;;;;;;0.70;0.70;;;15.40;99.90;;;;;;5209432;28;20273;-47
2022/07/16 02:10:07;;;;;;;1.17;0.77;;;15.50;99.90;;;;;;5216672;28;20265;-46
2022/07/16 02:12:37;;;;;;;1.90;0.80;;;15.50;99.90;;;;;;5214215;28;20179;-47
2022/07/16 02:15:09;;;;;;;1.70;0.60;;;15.60;99.90;;;;;;5212073;28;20191;-48
2022/07/16 02:17:41;;;;;;;2.10;0.57;;;15.60;99.90;;;;;;5211815;28;20328;-47
2022/07/16 02:20:12;;;;;;;1.90;0.90;;;15.60;99.90;;;;;;5211802;28;20541;-45
2022/07/16 02:22:43;;;;;;;3.17;0.77;;;15.60;99.90;;;;;;5212627;28;20472;-45
2022/07/16 02:25:14;;;;;;;1.50;0.60;;;15.70;99.90;;;;;;5209592;28;20504;-47
2022/07/16 02:30:51;;;;;;;0.73;0.73;;;15.60;99.90;;;;;;5212317;28;20737;-47
2022/07/16 02:33:22;;;;;;;2.20;1.10;;;15.60;99.90;;;;;;5216533;28;20821;-46
2022/07/16 02:35:53;;;;;;;0.60;0.60;;;15.60;99.90;;;;;;5206335;28;20469;-47
2022/07/16 02:38:23;;;;;;;0.70;0.70;;;15.60;99.90;;;;;;5207201;28;20200;-46
2022/07/16 02:40:54;;;;;;;2.73;0.60;;;15.50;99.90;;;;;;5211635;28;20279;-47
2022/07/16 02:43:24;;;;;;;1.30;0.70;;;15.60;99.90;;;;;;5205719;28;20184;-46
2022/07/16 02:45:55;;;;;;;0.60;0.60;;;15.50;99.90;;;;;;5208473;28;20297;-45
2022/07/16 02:48:26;;;;;;;0.40;0.40;;;15.40;99.90;;;;;;5217101;28;20270;-46
2022/07/16 02:50:57;;;;;;;2.00;0.73;;;15.40;99.90;;;;;;5218196;28;20579;-47
2022/07/16 02:53:27;;;;;;;1.00;0.97;;;15.40;99.90;;;;;;5216866;28;20183;-47
2022/07/16 02:55:58;;;;;;;0.87;0.87;;;15.50;99.90;;;;;;5190925;28;20187;-46
2022/07/16 02:58:28;;;;;;;1.27;0.60;;;15.40;99.90;;;;;;5201450;28;20188;-45
2022/07/16 03:00:59;;;;;;;1.00;1.00;;;15.50;99.90;;;;;;5221756;28;20611;-47
2022/07/16 03:03:29;;;;;;;1.07;0.77;;;15.50;99.90;;;;;;5211713;28;20226;-47
2022/07/16 03:06:01;;;;;;;0.63;0.47;;;15.60;99.90;;;;;;5192293;28;20675;-45
2022/07/16 03:08:31;;;;;;;2.33;1.10;;;15.60;99.90;;;;;;5211064;28;20187;-48
2022/07/16 03:11:02;;;;;;;0.90;0.90;;;15.60;99.90;;;;;;5200336;28;20471;-47
2022/07/16 03:13:32;;;;;;;1.13;0.90;;;15.60;99.90;;;;;;5208997;28;20191;-46
2022/07/16 03:16:03;;;;;;;2.60;0.73;;;15.70;99.90;;;;;;5212484;28;20202;-47
2022/07/16 03:18:34;;;;;;;1.20;0.70;;;15.70;99.90;;;;;;5207019;28;20199;-46
2022/07/16 03:21:05;;;;;;;1.00;1.00;;;15.70;99.90;;;;;;5218900;28;21052;-46
2022/07/16 03:23:35;;;;;;;2.87;1.03;;;15.80;99.90;;;;;;5206327;28;20227;-47
2022/07/16 03:26:06;;;;;;;0.90;0.90;;;15.80;99.90;;;;;;5207957;28;20206;-48
2022/07/16 03:28:38;;;;;;;1.63;1.07;;;15.80;99.90;;;;;;5207835;28;20187;-46
2022/07/16 03:31:08;;;;;;;0.90;0.90;;;15.80;99.90;;;;;;5210700;28;20203;-48
2022/07/16 03:33:39;;;;;;;0.77;0.77;;;15.80;99.90;;;;;;5214231;28;20973;-45
2022/07/16 03:36:10;;;;;;;4.93;1.33;;;15.90;99.90;;;;;;5214413;28;20179;-47
2022/07/16 03:41:32;;;;;;;0.60;0.60;;;15.90;99.90;;;;;;5219754;28;21008;-44
2022/07/16 03:44:05;;;;;;;1.43;0.87;;;15.70;99.90;;;;;;5209729;28;20445;-44
2022/07/16 03:46:36;;;;;;;3.33;1.50;;;15.70;99.90;;;;;;5212906;28;20480;-43
2022/07/16 03:49:07;;;;;;;1.00;1.00;;;15.50;99.90;;;;;;5216320;28;20434;-45
2022/07/16 03:51:37;;;;;;;1.03;0.60;;;15.60;99.90;;;;;;5219938;28;20183;-43
2022/07/16 03:54:08;;;;;;;0.60;0.60;;;15.50;99.90;;;;;;5209420;28;20445;-44
2022/07/16 03:56:39;;;;;;;0.63;0.63;;;15.40;99.90;;;;;;5226272;28;20199;-44
2022/07/16 03:59:10;;;;;;;0.50;0.50;;;15.40;99.90;;;;;;5222666;28;20546;-45
2022/07/16 04:01:41;;;;;;;1.77;0.73;;;15.30;99.90;;;;;;5223720;28;20313;-46
2022/07/16 04:04:12;;;;;;;3.03;0.93;;;15.40;99.90;;;;;;5215479;28;20533;-43
2022/07/16 04:06:42;;;;;;;2.00;0.73;;;15.40;99.90;;;;;;5214263;28;20209;-46
2022/07/16 04:09:13;;;;;;;1.97;0.90;;;15.50;99.90;;;;;;5218782;28;20250;-43
2022/07/16 04:11:43;;;;;;;0.70;0.70;;;15.50;99.90;;;;;;5220207;28;20187;-44
2022/07/16 04:14:14;;;;;;;0.50;0.50;;;15.50;99.90;;;;;;5198040;28;20210;-43
2022/07/16 04:16:44;;;;;;;1.07;0.80;;;15.50;99.90;;;;;;5208810;28;20187;-44
2022/07/16 04:19:15;;;;;;;0.70;0.70;;;15.60;99.90;;;;;;5196324;28;20221;-44
2022/07/16 04:21:46;;;;;;;1.20;1.13;;;15.60;99.90;;;;;;5204625;28;20187;-45
2022/07/16 04:24:16;;;;;;;0.70;0.70;;;15.80;99.90;;;;;;5223894;28;20465;-44
2022/07/16 04:26:47;;;;;;;0.60;0.60;;;15.60;99.90;;;;;;5215437;28;20293;-44
2022/07/16 04:29:17;;;;;;;0.83;0.80;;;15.70;99.90;;;;;;5229466;28;20206;-44
2022/07/16 04:31:48;;;;;;;0.93;0.93;;;15.80;99.90;;;;;;5215219;28;20266;-44
2022/07/16 04:34:19;;;;;;;2.33;0.80;;;15.80;99.90;;;;;;5222985;28;20643;-45
2022/07/16 04:36:49;;;;;;;4.10;1.27;;;16.00;99.90;;;;;;5213805;28;20183;-45
2022/07/16 04:39:20;;;;;;;0.77;0.77;;;16.00;99.90;;;;;;5197333;28;20203;-47
2022/07/16 04:41:51;;;;;;;1.00;0.83;;;16.30;99.90;;;;;;5206103;28;20206;-44
2022/07/16 04:44:22;;;;;;;0.87;0.87;;;16.30;99.90;;;;;;5205434;28;20467;-45
2022/07/16 04:46:53;;;;;;;0.60;0.60;;;16.30;99.90;;;;;;5226347;28;20217;-43
2022/07/16 04:49:23;;;;;;;1.33;0.50;;;16.30;99.90;;;;;;5199943;28;20688;-43
2022/07/16 04:51:54;;;;;;;3.30;0.77;;;16.10;99.90;;;;;;5205928;28;20203;-44
2022/07/16 04:54:24;;;;;;;1.47;0.80;;;16.00;99.90;;;;;;5218366;28;20609;-44
2022/07/16 04:56:55;;;;;;;0.87;0.70;;;15.90;99.90;;;;;;5207519;28;20191;-44
2022/07/16 04:59:26;;;;;;;2.00;0.97;;;16.00;99.90;;;;;;5208471;28;20217;-45
2022/07/16 05:02:56;;;;;;;2.47;0.73;;;15.90;99.90;;;;;;5214887;28;20938;-43
2022/07/16 05:04:47;;;;;;;0.73;0.57;;;15.90;99.90;;;;;;5221510;28;20270;-45
2022/07/16 05:07:17;;;;;;;0.60;0.60;;;15.80;99.90;;;;;;5216602;28;20746;-43
2022/07/16 05:09:48;;;;;;;1.90;0.70;;;15.80;99.90;;;;;;5219233;28;20523;-44
2022/07/16 05:12:19;;;;;;;0.70;0.70;;;15.80;99.90;;;;;;5207010;28;20269;-44
2022/07/16 05:14:49;;;;;;;1.07;0.60;;;15.90;99.90;;;;;;5218658;28;20196;-44
2022/07/16 05:17:20;;;;;;;1.33;0.70;;;16.00;99.90;;;;;;5220336;28;20195;-44
2022/07/16 05:19:50;;;;;;;1.60;0.53;;;16.00;99.90;;;;;;5223988;28;20242;-43
2022/07/16 05:22:21;;;;;;;5.50;0.60;;;16.00;99.90;;;;;;5207007;28;20195;-44
2022/07/16 05:24:51;;;;;;;0.70;0.63;;;16.00;99.90;;;;;;5219326;28;20199;-46
2022/07/16 05:27:22;;;;;;;1.13;0.80;;;16.10;99.90;;;;;;5206001;28;20693;-43
2022/07/16 05:29:53;;;;;;;1.33;1.10;;;16.20;99.90;;;;;;5222651;28;20258;-43
2022/07/16 05:32:23;;;;;;;2.53;0.57;;;16.30;99.90;;;;;;5230975;28;20187;-44
2022/07/16 05:34:54;;;;;;;1.13;0.77;;;16.40;99.90;;;;;;5218446;28;20183;-44
2022/07/16 05:37:24;;;;;;;2.20;0.70;;;16.60;99.90;;;;;;5202363;28;20195;-44
2022/07/16 05:39:55;;;;;;;1.00;1.00;;;16.80;99.90;;;;;;5204302;28;20225;-45
2022/07/16 05:42:26;;;;;;;1.43;0.90;;;16.90;99.90;;;;;;5204312;28;20194;-45
2022/07/16 05:44:56;;;;;;;1.10;1.00;;;17.00;99.80;;;;;;5210073;28;20214;-43
2022/07/16 05:47:27;;;;;;;1.93;1.20;;;17.00;99.00;;;;;;5208848;28;20343;-43
2022/07/16 05:49:57;;;;;;;1.73;0.80;;;17.00;98.50;;;;;;5220931;28;20598;-47
2022/07/16 05:52:28;;;;;;;0.80;0.80;;;17.00;98.50;;;;;;5216631;28;20199;-46
2022/07/16 05:54:59;;;;;;;1.50;0.90;;;17.00;98.30;;;;;;5199054;28;20192;-44
2022/07/16 05:57:29;;;;;;;0.63;0.63;;;17.00;97.90;;;;;;5194571;28;20274;-45
2022/07/16 06:00:00;;;;;;;1.43;0.90;;;17.00;97.80;;;;;;5201826;28;20211;-46
2022/07/16 06:02:31;;;;;;;2.40;1.37;;;16.90;99.30;;;;;;5200448;28;20218;-44
2022/07/16 06:05:01;;;;;;;3.50;1.07;;;16.70;99.90;;;;;;5224700;28;20206;-44
2022/07/16 06:07:32;;;;;;;2.43;1.33;;;16.60;99.90;;;;;;5218273;28;20194;-47
2022/07/16 06:10:03;;;;;;;1.10;1.10;;;16.40;99.90;;;;;;5202670;28;20564;-44
2022/07/16 06:12:34;;;;;;;5.70;1.33;;;16.30;99.90;;;;;;5222743;28;20262;-44
2022/07/16 06:15:06;;;;;;;4.10;1.13;;;16.10;99.90;;;;;;5211502;28;20517;-45
2022/07/16 06:17:37;;;;;;;1.90;1.20;;;15.80;99.90;;;;;;5219166;28;20270;-43
2022/07/16 06:20:10;;;;;;;3.23;1.20;;;15.70;99.90;;;;;;5210565;28;20472;-45
2022/07/16 06:22:40;;;;;;;2.73;1.77;;;15.40;99.90;;;;;;5210353;28;20435;-44
2022/07/16 06:25:11;;;;;;;1.80;1.70;;;15.30;99.90;;;;;;5198076;28;20462;-47
2022/07/16 06:27:43;;;;;;;8.53;1.23;;;15.10;99.90;;;;;;5214333;28;20176;-45
2022/07/16 06:30:14;;;;;;;2.57;1.37;;;15.10;99.90;;;;;;5215482;28;20202;-45
2022/07/16 06:32:44;;;;;;;3.60;1.80;;;15.10;99.90;;;;;;5223966;28;20576;-46
2022/07/16 06:35:15;;;;;;;3.27;2.20;;;15.00;99.90;;;;;;5204310;28;20190;-44
2022/07/16 06:37:46;;;;;;;1.37;1.37;;;14.90;99.90;;;;;;5214218;28;20264;-45
2022/07/16 06:40:17;;;;;;;1.63;1.53;;;14.90;99.90;;;;;;5219529;28;20210;-44
2022/07/16 06:42:48;;;;;;;2.40;2.00;;;14.90;99.90;;;;;;5216452;28;20578;-45
2022/07/16 06:45:18;;;;;;;3.90;1.67;;;14.80;99.90;;;;;;5202329;28;20520;-46
2022/07/16 06:47:49;;;;;;;1.97;1.70;;;14.80;99.90;;;;;;5200200;28;20179;-45
2022/07/16 06:50:19;;;;;;;3.70;1.47;;;14.80;99.90;;;;;;5203649;28;20203;-45
2022/07/16 06:52:50;;;;;;;2.30;1.53;;;14.80;99.90;;;;;;5216006;28;20295;-45
2022/07/16 06:55:21;;;;;;;2.23;2.13;;;14.80;99.90;;;;;;5205996;28;20183;-45
2022/07/16 06:57:51;;;;;;;1.93;1.73;;;14.80;99.90;;;;;;5215744;28;20462;-45
2022/07/16 07:00:22;;;;;;;1.80;1.70;;;14.90;99.90;;;;;;5215143;28;20726;-46
2022/07/16 07:02:53;;;;;;;3.03;1.80;;;15.00;99.90;;;;;;5212561;28;20190;-44
2022/07/16 07:05:23;;;;;;;2.00;1.90;;;15.20;99.90;;;;;;5192844;28;20210;-45
2022/07/16 07:07:54;;;;;;;6.17;2.37;;;15.30;99.90;;;;;;5216172;28;20725;-47
2022/07/16 07:10:25;;;;;;;3.83;2.70;;;15.50;99.90;;;;;;5211464;28;20195;-45
2022/07/16 07:12:55;;;;;;;4.73;2.13;;;15.80;99.90;;;;;;5209572;28;20176;-44
2022/07/16 07:15:26;;;;;;;1.57;1.57;;;16.00;99.90;;;;;;5198942;28;20190;-45
2022/07/16 07:17:57;;;;;;;2.83;1.70;;;16.40;99.90;;;;;;5217774;28;20180;-48
2022/07/16 07:20:28;;;;;;;1.63;1.53;;;16.80;99.90;;;;;;5221565;28;20207;-48
2022/07/16 07:22:58;;;;;;;3.50;2.23;;;16.70;99.90;;;;;;5213195;28;20652;-45
2022/07/16 07:25:29;;;;;;;3.13;1.80;;;16.60;99.90;;;;;;5203290;28;20295;-44
2022/07/16 07:28:00;;;;;;;2.97;1.80;;;17.10;99.90;;;;;;5222638;28;20209;-46
2022/07/16 07:30:30;;;;;;;2.00;2.00;;;17.70;99.90;;;;;;5206239;28;20969;-45
2022/07/16 07:33:01;;;;;;;2.73;1.50;;;17.90;99.90;;;;;;5202931;28;20677;-44
2022/07/16 07:35:32;;;;;;;1.73;1.63;;;18.30;99.90;;;;;;5202424;28;20540;-48
2022/07/16 07:38:03;;;;;;;1.97;1.87;;;18.50;99.90;;;;;;5216930;28;20198;-45
2022/07/16 07:40:33;;;;;;;1.80;1.70;;;18.50;99.90;;;;;;5221386;28;20556;-45
2022/07/16 07:43:04;;;;;;;1.90;1.80;;;18.40;99.90;;;;;;5228674;28;20225;-45
2022/07/16 07:45:34;;;;;;;3.23;2.10;;;18.70;99.90;;;;;;5219447;28;20199;-48
2022/07/16 07:48:05;;;;;;;1.60;1.50;;;18.40;99.90;;;;;;5203940;28;20205;-51
2022/07/16 07:50:36;;;;;;;1.47;1.47;;;18.40;99.90;;;;;;5203928;28;20706;-44
2022/07/16 07:53:06;;;;;;;1.90;1.70;;;18.40;99.90;;;;;;5225137;28;20313;-45
2022/07/16 07:55:37;;;;;;;2.10;1.73;;;19.30;99.90;;;;;;5204804;28;20566;-44
2022/07/16 07:58:08;;;;;;;1.10;1.00;;;20.10;99.90;;;;;;5221909;28;20183;-47
2022/07/16 08:00:38;;;;;;;1.93;1.80;;;20.70;99.90;;;;;;5217760;28;20703;-45
2022/07/16 08:03:09;;;;;;;1.27;1.23;;;21.20;99.60;;;;;;5227321;28;20179;-47
2022/07/16 08:05:40;;;;;;;1.13;1.13;;;21.10;99.90;;;;;;5214510;28;20631;-46
2022/07/16 08:08:10;;;;;;;1.60;1.50;;;22.10;96.00;;;;;;5215809;28;20442;-44
2022/07/16 08:10:41;;;;;;;2.77;1.30;;;23.50;89.40;;;;;;5218758;28;20218;-48
2022/07/16 08:13:12;;;;;;;2.30;1.40;;;24.70;77.20;;;;;;5205365;28;20179;-47
2022/07/16 08:15:43;;;;;;;3.13;0.70;;;25.70;67.20;;;;;;5219707;28;20302;-45
2022/07/16 08:18:13;;;;;;;1.00;1.00;;;26.00;59.30;;;;;;5222138;28;20183;-45
2022/07/16 08:20:44;;;;;;;1.27;1.27;;;26.10;56.40;;;;;;5223795;28;20207;-45
2022/07/16 08:25:44;;;;;;;1.73;1.27;;;24.60;58.30;;;;;;5220222;28;20191;-45
2022/07/16 08:26:05;;;;;;;0.93;0.93;;;24.90;56.80;;;;;;5219893;28;20748;-45
2022/07/16 08:28:40;;;;;;;1.00;1.00;;;24.10;57.40;;;;;;5211148;28;20438;-46
2022/07/16 08:31:11;;;;;;;2.20;1.20;;;22.70;59.60;;;;;;5206116;28;20214;-46
2022/07/16 08:33:42;;;;;;;1.10;1.07;;;21.50;63.60;;;;;;5203623;28;20437;-44
2022/07/16 08:36:13;;;;;;;0.90;0.90;;;21.10;68.70;;;;;;5201300;28;21256;-46
2022/07/16 08:38:43;;;;;;;1.73;1.17;;;21.60;67.50;;;;;;5221879;28;20183;-44
2022/07/16 08:41:15;;;;;;;1.20;1.10;;;21.00;67.90;;;;;;5205596;28;20214;-45
2022/07/16 08:43:45;;;;;;;1.10;1.10;;;21.00;71.70;;;;;;5207460;28;20266;-45
2022/07/16 08:46:20;;;;;;;2.30;1.50;;;21.40;64.90;;;;;;5203203;28;20580;-45
2022/07/16 08:48:54;;;;;;;1.30;1.30;;;22.40;65.60;;;;;;5217894;28;20231;-46
2022/07/16 08:51:33;;;;;;;1.73;0.80;;;23.30;61.10;;;;;;5218187;28;20457;-45
2022/07/16 08:54:17;;;;;;;1.60;1.03;;;23.00;58.80;;;;;;5203718;28;20446;-44
2022/07/16 08:56:52;;;;;;;0.93;0.93;;;22.50;59.10;;;;;;5213902;28;20446;-44
2022/07/16 08:59:22;;;;;;;1.07;0.80;;;22.20;59.70;;;;;;5207519;28;20462;-47
2022/07/16 09:01:53;;;;;;;3.20;1.33;;;22.10;61.00;;;;;;5218149;28;20445;-49
2022/07/16 09:04:24;;;;;;;1.60;1.50;;;21.90;60.30;;;;;;5208965;28;20195;-45
2022/07/16 09:06:54;;;;;;;1.90;1.70;;;21.50;60.80;;;;;;5219725;28;20621;-45
2022/07/16 09:09:25;;;;;;;0.87;0.87;;;21.10;61.00;;;;;;5214973;28;20286;-45
2022/07/16 09:11:56;;;;;;;1.33;1.27;;;20.50;61.40;;;;;;5196164;28;20183;-45
2022/07/16 09:14:26;;;;;;;0.87;0.87;;;20.00;63.40;;;;;;5213388;28;20733;-50
2022/07/16 09:16:57;;;;;;;1.93;1.90;;;19.90;65.10;;;;;;5220260;28;20191;-45
2022/07/16 09:19:29;;;;;;;5.83;1.70;;;20.10;64.80;;;;;;5218340;28;20302;-48
2022/07/16 09:22:05;;;;;;;1.10;1.00;;;20.10;64.10;;;;;;5213943;28;20555;-45
2022/07/16 09:24:38;;;;;;;4.10;1.13;;;20.30;64.10;;;;;;5211728;28;20797;-44
2022/07/16 09:27:10;;;;;;;0.90;0.90;;;20.40;61.90;;;;;;5197872;28;20481;-45
2022/07/16 09:29:54;;;;;;;1.00;0.93;;;20.60;61.40;;;;;;5223476;28;20459;-46
2022/07/16 09:32:45;;;;;;;0.67;0.67;;;20.60;58.80;;;;;;5206312;28;20948;-45
2022/07/16 09:35:18;;;;;;;1.90;0.70;;;20.70;59.00;;;;;;5221492;28;20524;-46
2022/07/16 09:37:52;;;;;;;0.70;0.70;;;20.60;59.20;;;;;;5220720;28;20441;-46
2022/07/16 09:40:43;;;;;;;0.73;0.73;;;20.20;58.50;;;;;;5202382;28;20465;-46
2022/07/16 09:43:13;;;;;;;0.73;0.73;;;20.20;57.80;;;;;;5223957;28;20441;-44
2022/07/16 09:45:47;;;;;;;0.93;0.83;;;20.40;56.40;;;;;;5208298;28;20568;-45
2022/07/16 09:48:29;;;;;;;0.97;0.60;;;20.30;52.50;;;;;;5206142;28;20183;-47
2022/07/16 09:51:21;;;;;;;0.73;0.73;;;20.30;53.50;;;;;;5221262;28;20799;-45
2022/07/16 09:53:53;;;;;;;1.33;0.70;;;20.10;54.10;;;;;;5208158;28;20425;-46
2022/07/16 09:56:26;;;;;;;0.60;0.60;;;20.00;54.10;;;;;;5205274;28;20434;-46
2022/07/16 09:58:58;;;;;;;1.17;0.60;;;20.20;54.50;;;;;;5213010;28;20442;-47
2022/07/16 10:01:28;;;;;;;1.80;1.33;;;21.00;54.40;;;;;;5208030;28;20520;-48
2022/07/16 10:03:59;;;;;;;2.87;1.00;;;21.40;52.40;;;;;;5220492;28;20526;-46
2022/07/16 10:06:30;;;;;;;1.40;0.63;;;21.30;51.30;;;;;;5194162;28;20679;-47
2022/07/16 10:09:01;;;;;;;4.10;0.70;;;21.00;51.30;;;;;;5227298;28;20527;-45
2022/07/16 10:11:33;;;;;;;0.70;0.53;;;20.80;51.50;;;;;;5207862;28;20246;-45
2022/07/16 10:14:03;;;;;;;1.63;1.00;;;20.90;52.00;;;;;;5201173;28;20794;-46
2022/07/16 10:16:43;;;;;;;3.23;1.00;;;20.90;51.20;;;;;;5216846;28;20449;-49
2022/07/16 10:19:15;;;;;;;3.50;0.80;;;20.50;51.70;;;;;;5221232;28;20244;-44
2022/07/16 10:22:11;;;;;;;1.90;1.00;;;20.50;52.90;;;;;;5208510;28;20516;-45
2022/07/16 10:25:07;;;;;;;2.97;1.33;;;20.50;52.20;;;;;;5218108;28;20885;-45
2022/07/16 10:27:38;;;;;;;2.83;1.07;;;20.30;52.30;;;;;;5218641;28;20448;-45
2022/07/16 10:30:18;;;;;;;1.50;1.30;;;20.10;52.40;;;;;;5208828;28;20981;-46
2022/07/16 10:33:06;;;;;;;4.43;2.20;;;19.90;52.80;;;;;;5209636;28;20179;-45
2022/07/16 10:35:44;;;;;;;2.10;1.43;;;19.90;53.10;;;;;;5210548;28;20538;-48
2022/07/16 10:38:18;;;;;;;2.80;1.50;;;19.90;53.00;;;;;;5221740;28;20444;-45
2022/07/16 10:41:20;;;;;;;1.53;1.43;;;19.70;50.50;;;;;;5215187;28;20842;-47
2022/07/16 10:44:10;;;;;;;6.67;3.27;;;19.70;51.20;;;;;;5189103;28;20800;-46
2022/07/16 10:46:57;;;;;;;1.00;1.00;;;19.90;51.50;;;;;;5220480;28;20476;-45
2022/07/16 10:49:29;;;;;;;2.63;1.20;;;20.00;50.90;;;;;;5202367;28;20454;-47
2022/07/16 10:52:05;;;;;;;4.23;1.67;;;20.00;50.70;;;;;;5206027;28;20449;-46
2022/07/16 10:54:39;;;;;;;2.20;2.10;;;20.10;50.50;;;;;;5226989;28;20916;-46
2022/07/16 10:57:11;;;;;;;2.53;1.40;;;20.10;51.20;;;;;;5220669;28;20457;-48
2022/07/16 10:59:45;;;;;;;0.90;0.90;;;20.30;51.40;;;;;;5199071;28;20445;-46
2022/07/16 11:02:18;;;;;;;3.13;0.80;;;20.40;51.20;;;;;;5224269;28;20444;-45
2022/07/16 11:04:49;;;;;;;1.30;1.20;;;20.60;51.00;;;;;;5217581;28;20520;-45
2022/07/16 11:07:21;;;;;;;4.03;0.93;;;20.70;50.10;;;;;;5220236;28;20533;-45
2022/07/16 11:09:54;;;;;;;1.00;0.90;;;20.70;50.60;;;;;;5205295;28;20234;-45
2022/07/16 11:12:27;;;;;;;2.87;1.90;;;20.60;49.40;;;;;;5208756;28;20490;-45
2022/07/16 11:15:00;;;;;;;2.40;1.20;;;20.60;49.20;;;;;;5222020;28;20417;-46
2022/07/16 11:17:33;;;;;;;3.90;2.83;;;20.70;49.40;;;;;;5221762;28;20491;-45
2022/07/16 11:20:08;;;;;;;4.57;2.80;;;20.80;49.70;;;;;;5220411;28;20772;-45
2022/07/16 11:22:39;;;;;;;2.93;2.60;;;20.80;49.20;;;;;;5184099;28;20438;-46
2022/07/16 11:25:10;;;;;;;2.00;1.43;;;20.90;48.90;;;;;;5202177;28;20837;-46
2022/07/16 11:27:41;;;;;;;1.13;1.03;;;20.90;47.30;;;;;;5213528;28;20216;-50
2022/07/16 11:30:12;;;;;;;0.77;0.60;;;20.80;46.60;;;;;;5207216;28;20207;-45
2022/07/16 11:32:45;;;;;;;1.07;0.77;;;20.70;46.80;;;;;;5228137;28;20433;-47
2022/07/16 11:35:16;;;;;;;1.63;1.63;;;20.60;46.90;;;;;;5219843;28;20591;-46
2022/07/16 11:37:51;;;;;;;1.73;1.63;;;20.70;45.60;;;;;;5221176;28;20929;-46
2022/07/16 11:40:37;;;;;;;1.90;0.97;;;20.60;45.40;;;;;;5195420;28;20721;-46
2022/07/16 11:43:07;;;;;;;1.00;0.73;;;20.60;45.40;;;;;;5223221;28;20425;-46
2022/07/16 11:45:42;;;;;;;1.80;0.87;;;20.60;45.80;;;;;;5206797;28;20995;-45
2022/07/16 11:48:15;;;;;;;0.70;0.70;;;20.60;45.20;;;;;;5223244;28;20187;-46
2022/07/16 11:50:47;;;;;;;0.87;0.80;;;20.60;44.80;;;;;;5209243;28;20449;-49
2022/07/16 11:53:28;;;;;;;2.00;0.70;;;20.60;43.70;;;;;;5212006;28;20797;-44
2022/07/16 11:55:59;;;;;;;1.40;1.20;;;20.60;43.40;;;;;;5205336;28;20459;-48
2022/07/16 11:58:30;;;;;;;0.70;0.70;;;20.70;43.30;;;;;;5225678;28;20438;-45
2022/07/16 12:01:01;;;;;;;0.60;0.60;;;20.80;42.40;;;;;;5220861;28;20332;-44
2022/07/16 12:03:32;;;;;;;1.60;0.83;;;20.80;41.60;;;;;;5218736;28;20245;-43
2022/07/16 12:06:04;;;;;;;0.97;0.97;;;20.80;40.60;;;;;;5200167;28;20206;-46
2022/07/16 12:08:36;;;;;;;0.77;0.67;;;20.70;39.90;;;;;;5217566;28;20249;-45
2022/07/16 12:11:07;;;;;;;2.23;2.13;;;20.80;40.60;;;;;;5190001;28;21004;-44
2022/07/16 12:13:39;;;;;;;3.33;0.67;;;21.10;40.00;;;;;;5195758;28;20435;-45
2022/07/16 12:16:10;;;;;;;3.97;2.00;;;21.20;40.00;;;;;;5222306;28;20186;-45
2022/07/16 12:18:40;;;;;;;9.63;5.83;;;21.20;39.90;;;;;;5196645;28;20841;-44
2022/07/16 12:21:34;;;;;;;1.20;1.10;;;21.00;40.00;;;;;;5220101;28;20210;-45
2022/07/16 12:24:06;;;;;;;1.50;0.57;;;20.80;40.10;;;;;;5208231;28;20273;-44
2022/07/16 12:26:39;;;;;;;0.70;0.70;;;20.70;40.90;;;;;;5224625;28;20473;-46
2022/07/16 12:29:12;;;;;;;3.23;1.30;;;20.50;41.20;;;;;;5198547;28;20917;-49
2022/07/16 12:31:42;;;;;;;2.80;2.60;;;20.50;41.70;;;;;;5218681;28;20470;-47
2022/07/16 12:34:13;;;;;;;2.40;1.40;;;20.50;41.90;;;;;;5193256;28;20480;-45
2022/07/16 12:36:43;;;;;;;8.10;2.70;;;20.40;41.30;;;;;;5218335;28;20212;-46
2022/07/16 12:39:21;;;;;;;3.93;3.00;;;20.40;40.90;;;;;;5196275;28;20511;-44
2022/07/16 12:41:52;;;;;;;16.43;7.00;;;20.40;41.40;;;;;;5220026;28;20286;-46
2022/07/16 12:44:22;;;;;;;1.40;1.03;;;20.50;41.60;;;;;;5210122;28;20472;-44
2022/07/16 12:46:53;;;;;;;1.00;1.00;;;20.80;41.80;;;;;;5215964;28;20834;-46
2022/07/16 12:49:26;;;;;;;1.43;1.00;;;20.90;40.70;;;;;;5225746;28;20195;-45
2022/07/16 12:52:01;;;;;;;8.33;5.07;;;21.00;40.00;;;;;;5214881;28;20535;-46
2022/07/16 13:00:13;;;;;;;1.00;0.90;;;20.50;41.20;;;;;;5215587;28;20449;-47
2022/07/16 13:02:44;;;;;;;4.40;2.60;;;20.60;41.50;;;;;;5200373;28;20453;-47
2022/07/16 13:05:15;;;;;;;2.73;1.93;;;20.70;41.40;;;;;;5216439;28;20507;-45
2022/07/16 13:07:45;;;;;;;1.33;1.00;;;21.10;41.20;;;;;;5205048;28;20167;-46
2022/07/16 13:10:16;;;;;;;2.40;0.70;;;21.10;40.80;;;;;;5215283;28;20691;-47
2022/07/16 13:12:47;;;;;;;1.47;1.33;;;20.90;40.90;;;;;;5220584;28;20193;-46
2022/07/16 13:15:19;;;;;;;1.40;1.27;;;20.70;41.90;;;;;;5220516;28;20251;-44
2022/07/16 13:17:50;;;;;;;1.37;0.83;;;20.80;42.30;;;;;;5200520;28;20669;-46
2022/07/16 13:20:20;;;;;;;1.40;1.23;;;20.90;41.60;;;;;;5199916;28;20500;-47
2022/07/16 13:22:51;;;;;;;1.60;0.87;;;21.00;39.40;;;;;;5200273;28;20179;-49
2022/07/16 13:25:21;;;;;;;3.13;0.90;;;21.10;38.80;;;;;;5200773;28;20207;-45